sensor_id;sensor_type;location;lat;lon;timestamp;P1;durP1;ratioP1;P2;durP2;ratioP2
20399;SDS011;10359;53.596;22.520;2022-11-02T00:02:33;38.03;;;13.37;;
20399;SDS011;10359;53.596;22.520;2022-11-02T00:05:23;27.30;;;11.43;;
20399;SDS011;10359;53.596;22.520;2022-11-02T00:08:14;27.53;;;11.60;;
20399;SDS011;10359;53.596;22.520;2022-11-02T00:11:04;43.13;;;13.33;;
20399;SDS011;10359;53.596;22.520;2022-11-02T00:13:53;33.50;;;12.30;;
20399;SDS011;10359;53.596;22.520;2022-11-02T00:16:43;41.37;;;12.77;;
20399;SDS011;10359;53.596;22.520;2022-11-02T00:19:33;43.60;;;13.17;;
20399;SDS011;10359;53.596;22.520;2022-11-02T00:22:22;34.67;;;12.43;;
20399;SDS011;10359;53.596;22.520;2022-11-02T00:25:15;29.43;;;12.30;;
20399;SDS011;10359;53.596;22.520;2022-11-02T00:28:08;41.87;;;13.60;;
20399;SDS011;10359;53.596;22.520;2022-11-02T00:30:57;45.60;;;14.53;;
20399;SDS011;10359;53.596;22.520;2022-11-02T00:33:47;67.97;;;15.10;;
20399;SDS011;10359;53.596;22.520;2022-11-02T00:36:37;21.73;;;11.50;;
20399;SDS011;10359;53.596;22.520;2022-11-02T00:39:26;28.17;;;10.97;;
20399;SDS011;10359;53.596;22.520;2022-11-02T00:42:17;57.77;;;14.43;;
20399;SDS011;10359;53.596;22.520;2022-11-02T00:45:07;15.43;;;9.23;;
20399;SDS011;10359;53.596;22.520;2022-11-02T00:47:57;27.93;;;11.27;;
20399;SDS011;10359;53.596;22.520;2022-11-02T00:50:48;29.37;;;11.53;;
20399;SDS011;10359;53.596;22.520;2022-11-02T00:53:38;63.53;;;15.17;;
20399;SDS011;10359;53.596;22.520;2022-11-02T00:56:27;34.20;;;12.30;;
20399;SDS011;10359;53.596;22.520;2022-11-02T00:59:19;54.53;;;14.23;;
20399;SDS011;10359;53.596;22.520;2022-11-02T01:02:09;41.77;;;12.77;;
20399;SDS011;10359;53.596;22.520;2022-11-02T01:04:59;37.10;;;12.47;;
20399;SDS011;10359;53.596;22.520;2022-11-02T01:07:48;31.50;;;13.10;;
20399;SDS011;10359;53.596;22.520;2022-11-02T01:10:40;20.03;;;10.50;;
20399;SDS011;10359;53.596;22.520;2022-11-02T01:13:34;43.63;;;13.57;;
20399;SDS011;10359;53.596;22.520;2022-11-02T01:16:52;42.90;;;13.63;;
20399;SDS011;10359;53.596;22.520;2022-11-02T01:19:43;25.93;;;10.33;;
20399;SDS011;10359;53.596;22.520;2022-11-02T01:22:33;30.80;;;11.70;;
20399;SDS011;10359;53.596;22.520;2022-11-02T01:25:23;81.77;;;16.47;;
20399;SDS011;10359;53.596;22.520;2022-11-02T01:28:13;47.90;;;13.93;;
20399;SDS011;10359;53.596;22.520;2022-11-02T01:31:03;41.23;;;13.57;;
20399;SDS011;10359;53.596;22.520;2022-11-02T01:33:54;29.30;;;13.00;;
20399;SDS011;10359;53.596;22.520;2022-11-02T01:36:44;60.30;;;14.10;;
20399;SDS011;10359;53.596;22.520;2022-11-02T01:39:34;51.73;;;13.57;;
20399;SDS011;10359;53.596;22.520;2022-11-02T01:42:26;46.53;;;13.73;;
20399;SDS011;10359;53.596;22.520;2022-11-02T01:45:16;34.23;;;13.20;;
20399;SDS011;10359;53.596;22.520;2022-11-02T01:48:06;36.30;;;13.87;;
20399;SDS011;10359;53.596;22.520;2022-11-02T01:50:57;66.00;;;14.97;;
20399;SDS011;10359;53.596;22.520;2022-11-02T01:53:49;36.70;;;12.70;;
20399;SDS011;10359;53.596;22.520;2022-11-02T01:56:40;56.63;;;14.47;;
20399;SDS011;10359;53.596;22.520;2022-11-02T01:59:34;39.17;;;12.40;;
20399;SDS011;10359;53.596;22.520;2022-11-02T02:02:28;100.90;;;17.37;;
20399;SDS011;10359;53.596;22.520;2022-11-02T02:05:18;69.17;;;14.03;;
20399;SDS011;10359;53.596;22.520;2022-11-02T02:08:12;24.87;;;11.40;;
20399;SDS011;10359;53.596;22.520;2022-11-02T02:14:04;32.43;;;12.47;;
20399;SDS011;10359;53.596;22.520;2022-11-02T02:17:04;48.90;;;14.20;;
20399;SDS011;10359;53.596;22.520;2022-11-02T02:20:06;22.30;;;11.20;;
20399;SDS011;10359;53.596;22.520;2022-11-02T02:23:07;30.33;;;12.53;;
20399;SDS011;10359;53.596;22.520;2022-11-02T02:26:20;30.97;;;12.87;;
20399;SDS011;10359;53.596;22.520;2022-11-02T02:29:31;59.40;;;15.30;;
20399;SDS011;10359;53.596;22.520;2022-11-02T02:32:37;60.60;;;15.83;;
20399;SDS011;10359;53.596;22.520;2022-11-02T02:35:33;26.73;;;12.53;;
20399;SDS011;10359;53.596;22.520;2022-11-02T02:38:28;36.33;;;13.83;;
20399;SDS011;10359;53.596;22.520;2022-11-02T02:41:23;66.90;;;16.17;;
20399;SDS011;10359;53.596;22.520;2022-11-02T02:44:19;51.67;;;14.10;;
20399;SDS011;10359;53.596;22.520;2022-11-02T02:47:12;75.50;;;17.20;;
20399;SDS011;10359;53.596;22.520;2022-11-02T02:50:05;29.67;;;12.50;;
20399;SDS011;10359;53.596;22.520;2022-11-02T02:52:58;25.07;;;12.70;;
20399;SDS011;10359;53.596;22.520;2022-11-02T02:55:51;62.27;;;15.90;;
20399;SDS011;10359;53.596;22.520;2022-11-02T02:58:42;35.10;;;13.63;;
20399;SDS011;10359;53.596;22.520;2022-11-02T03:01:37;21.57;;;11.23;;
20399;SDS011;10359;53.596;22.520;2022-11-02T03:04:30;39.27;;;13.73;;
20399;SDS011;10359;53.596;22.520;2022-11-02T03:07:20;27.07;;;12.50;;
20399;SDS011;10359;53.596;22.520;2022-11-02T03:10:19;51.80;;;13.97;;
20399;SDS011;10359;53.596;22.520;2022-11-02T03:13:17;31.40;;;12.97;;
20399;SDS011;10359;53.596;22.520;2022-11-02T03:16:21;27.13;;;11.90;;
20399;SDS011;10359;53.596;22.520;2022-11-02T03:19:28;61.53;;;15.50;;
20399;SDS011;10359;53.596;22.520;2022-11-02T03:22:25;25.67;;;12.10;;
20399;SDS011;10359;53.596;22.520;2022-11-02T03:25:20;21.97;;;11.27;;
20399;SDS011;10359;53.596;22.520;2022-11-02T03:28:18;40.53;;;14.00;;
20399;SDS011;10359;53.596;22.520;2022-11-02T03:31:22;30.17;;;13.00;;
20399;SDS011;10359;53.596;22.520;2022-11-02T03:34:22;29.17;;;12.60;;
20399;SDS011;10359;53.596;22.520;2022-11-02T03:37:16;22.70;;;11.57;;
20399;SDS011;10359;53.596;22.520;2022-11-02T03:40:10;31.53;;;13.83;;
20399;SDS011;10359;53.596;22.520;2022-11-02T03:43:05;137.57;;;19.93;;
20399;SDS011;10359;53.596;22.520;2022-11-02T03:45:55;32.37;;;14.23;;
20399;SDS011;10359;53.596;22.520;2022-11-02T03:48:48;44.87;;;14.27;;
20399;SDS011;10359;53.596;22.520;2022-11-02T03:51:40;180.60;;;22.37;;
20399;SDS011;10359;53.596;22.520;2022-11-02T03:54:36;46.90;;;14.30;;
20399;SDS011;10359;53.596;22.520;2022-11-02T03:57:31;86.73;;;19.17;;
20399;SDS011;10359;53.596;22.520;2022-11-02T04:00:24;50.80;;;16.37;;
20399;SDS011;10359;53.596;22.520;2022-11-02T04:03:16;25.53;;;12.57;;
20399;SDS011;10359;53.596;22.520;2022-11-02T04:06:08;25.90;;;12.93;;
20399;SDS011;10359;53.596;22.520;2022-11-02T04:08:59;80.93;;;17.57;;
20399;SDS011;10359;53.596;22.520;2022-11-02T04:11:50;40.40;;;13.97;;
20399;SDS011;10359;53.596;22.520;2022-11-02T04:14:57;25.07;;;13.57;;
20399;SDS011;10359;53.596;22.520;2022-11-02T04:17:47;38.03;;;14.73;;
20399;SDS011;10359;53.596;22.520;2022-11-02T04:20:54;33.53;;;14.10;;
20399;SDS011;10359;53.596;22.520;2022-11-02T04:23:43;42.33;;;15.80;;
20399;SDS011;10359;53.596;22.520;2022-11-02T04:26:52;34.67;;;14.30;;
20399;SDS011;10359;53.596;22.520;2022-11-02T04:29:41;98.60;;;18.87;;
20399;SDS011;10359;53.596;22.520;2022-11-02T04:32:35;35.77;;;15.33;;
20399;SDS011;10359;53.596;22.520;2022-11-02T04:35:42;34.93;;;14.20;;
20399;SDS011;10359;53.596;22.520;2022-11-02T04:38:32;101.23;;;19.33;;
20399;SDS011;10359;53.596;22.520;2022-11-02T04:41:27;72.67;;;18.00;;
20399;SDS011;10359;53.596;22.520;2022-11-02T04:44:34;35.90;;;14.90;;
20399;SDS011;10359;53.596;22.520;2022-11-02T04:47:23;93.37;;;19.30;;
20399;SDS011;10359;53.596;22.520;2022-11-02T04:50:13;54.73;;;16.13;;
20399;SDS011;10359;53.596;22.520;2022-11-02T04:53:03;46.00;;;15.87;;
20399;SDS011;10359;53.596;22.520;2022-11-02T04:55:54;30.40;;;14.10;;
20399;SDS011;10359;53.596;22.520;2022-11-02T04:58:46;33.80;;;14.97;;
20399;SDS011;10359;53.596;22.520;2022-11-02T05:01:38;35.83;;;15.20;;
20399;SDS011;10359;53.596;22.520;2022-11-02T05:04:28;27.17;;;13.53;;
20399;SDS011;10359;53.596;22.520;2022-11-02T05:07:17;40.17;;;15.43;;
20399;SDS011;10359;53.596;22.520;2022-11-02T05:10:07;105.57;;;20.00;;
20399;SDS011;10359;53.596;22.520;2022-11-02T05:12:57;84.27;;;18.20;;
20399;SDS011;10359;53.596;22.520;2022-11-02T05:15:47;91.87;;;19.13;;
20399;SDS011;10359;53.596;22.520;2022-11-02T05:18:38;31.90;;;14.90;;
20399;SDS011;10359;53.596;22.520;2022-11-02T05:21:27;48.60;;;16.23;;
20399;SDS011;10359;53.596;22.520;2022-11-02T05:24:17;55.07;;;17.13;;
20399;SDS011;10359;53.596;22.520;2022-11-02T05:27:08;58.63;;;16.80;;
20399;SDS011;10359;53.596;22.520;2022-11-02T05:29:57;84.17;;;18.70;;
20399;SDS011;10359;53.596;22.520;2022-11-02T05:32:47;27.90;;;13.63;;
20399;SDS011;10359;53.596;22.520;2022-11-02T05:35:38;52.17;;;16.70;;
20399;SDS011;10359;53.596;22.520;2022-11-02T05:38:27;71.17;;;18.77;;
20399;SDS011;10359;53.596;22.520;2022-11-02T05:41:16;58.93;;;15.97;;
20399;SDS011;10359;53.596;22.520;2022-11-02T05:44:06;41.40;;;15.53;;
20399;SDS011;10359;53.596;22.520;2022-11-02T05:46:55;130.13;;;20.13;;
20399;SDS011;10359;53.596;22.520;2022-11-02T05:49:45;45.73;;;16.33;;
20399;SDS011;10359;53.596;22.520;2022-11-02T05:52:35;90.30;;;19.27;;
20399;SDS011;10359;53.596;22.520;2022-11-02T05:55:25;74.73;;;18.17;;
20399;SDS011;10359;53.596;22.520;2022-11-02T05:58:14;77.97;;;17.83;;
20399;SDS011;10359;53.596;22.520;2022-11-02T06:01:04;62.67;;;17.03;;
20399;SDS011;10359;53.596;22.520;2022-11-02T06:03:55;49.80;;;16.70;;
20399;SDS011;10359;53.596;22.520;2022-11-02T06:06:44;117.77;;;20.93;;
20399;SDS011;10359;53.596;22.520;2022-11-02T06:09:35;45.10;;;16.70;;
20399;SDS011;10359;53.596;22.520;2022-11-02T06:12:24;59.37;;;18.13;;
20399;SDS011;10359;53.596;22.520;2022-11-02T06:15:14;32.70;;;14.93;;
20399;SDS011;10359;53.596;22.520;2022-11-02T06:18:03;52.20;;;33.00;;
20399;SDS011;10359;53.596;22.520;2022-11-02T06:20:55;34.03;;;16.30;;
20399;SDS011;10359;53.596;22.520;2022-11-02T06:23:45;40.93;;;17.00;;
20399;SDS011;10359;53.596;22.520;2022-11-02T06:26:36;56.33;;;19.07;;
20399;SDS011;10359;53.596;22.520;2022-11-02T06:29:26;56.80;;;17.73;;
20399;SDS011;10359;53.596;22.520;2022-11-02T06:32:20;37.77;;;15.00;;
20399;SDS011;10359;53.596;22.520;2022-11-02T06:35:09;85.77;;;19.27;;
20399;SDS011;10359;53.596;22.520;2022-11-02T06:37:59;27.67;;;13.07;;
20399;SDS011;10359;53.596;22.520;2022-11-02T06:40:54;58.90;;;17.53;;
20399;SDS011;10359;53.596;22.520;2022-11-02T06:43:46;25.73;;;13.43;;
20399;SDS011;10359;53.596;22.520;2022-11-02T06:46:35;34.83;;;14.93;;
20399;SDS011;10359;53.596;22.520;2022-11-02T06:49:24;37.77;;;15.47;;
20399;SDS011;10359;53.596;22.520;2022-11-02T06:52:14;36.60;;;15.40;;
20399;SDS011;10359;53.596;22.520;2022-11-02T06:55:03;39.60;;;14.90;;
20399;SDS011;10359;53.596;22.520;2022-11-02T06:57:53;43.27;;;14.27;;
20399;SDS011;10359;53.596;22.520;2022-11-02T07:00:44;41.80;;;15.40;;
20399;SDS011;10359;53.596;22.520;2022-11-02T07:03:33;33.93;;;13.73;;
20399;SDS011;10359;53.596;22.520;2022-11-02T07:06:23;104.37;;;19.40;;
20399;SDS011;10359;53.596;22.520;2022-11-02T07:09:12;78.60;;;16.23;;
20399;SDS011;10359;53.596;22.520;2022-11-02T07:12:01;46.47;;;15.33;;
20399;SDS011;10359;53.596;22.520;2022-11-02T07:14:51;29.27;;;13.43;;
20399;SDS011;10359;53.596;22.520;2022-11-02T07:17:42;97.23;;;18.27;;
20399;SDS011;10359;53.596;22.520;2022-11-02T07:20:31;49.43;;;15.33;;
20399;SDS011;10359;53.596;22.520;2022-11-02T07:23:20;26.93;;;12.37;;
20399;SDS011;10359;53.596;22.520;2022-11-02T07:26:10;24.67;;;12.07;;
20399;SDS011;10359;53.596;22.520;2022-11-02T07:28:59;109.20;;;18.70;;
20399;SDS011;10359;53.596;22.520;2022-11-02T07:31:48;26.40;;;11.90;;
20399;SDS011;10359;53.596;22.520;2022-11-02T07:34:39;22.87;;;11.03;;
20399;SDS011;10359;53.596;22.520;2022-11-02T07:37:29;23.03;;;11.53;;
20399;SDS011;10359;53.596;22.520;2022-11-02T07:40:18;49.33;;;14.77;;
20399;SDS011;10359;53.596;22.520;2022-11-02T07:43:07;30.23;;;13.47;;
20399;SDS011;10359;53.596;22.520;2022-11-02T07:45:57;21.90;;;11.70;;
20399;SDS011;10359;53.596;22.520;2022-11-02T07:48:48;23.57;;;11.87;;
20399;SDS011;10359;53.596;22.520;2022-11-02T07:51:39;19.80;;;11.00;;
20399;SDS011;10359;53.596;22.520;2022-11-02T07:54:29;20.67;;;11.10;;
20399;SDS011;10359;53.596;22.520;2022-11-02T07:57:18;21.03;;;12.10;;
20399;SDS011;10359;53.596;22.520;2022-11-02T08:00:08;22.73;;;12.77;;
20399;SDS011;10359;53.596;22.520;2022-11-02T08:02:59;19.93;;;12.07;;
20399;SDS011;10359;53.596;22.520;2022-11-02T08:05:50;40.53;;;13.83;;
20399;SDS011;10359;53.596;22.520;2022-11-02T08:08:41;49.70;;;15.13;;
20399;SDS011;10359;53.596;22.520;2022-11-02T08:11:30;27.63;;;13.83;;
20399;SDS011;10359;53.596;22.520;2022-11-02T08:14:19;43.83;;;14.83;;
20399;SDS011;10359;53.596;22.520;2022-11-02T08:17:08;23.33;;;12.60;;
20399;SDS011;10359;53.596;22.520;2022-11-02T08:19:58;21.90;;;12.30;;
20399;SDS011;10359;53.596;22.520;2022-11-02T08:22:48;26.07;;;14.27;;
20399;SDS011;10359;53.596;22.520;2022-11-02T08:25:38;28.97;;;14.73;;
20399;SDS011;10359;53.596;22.520;2022-11-02T08:28:29;24.03;;;13.53;;
20399;SDS011;10359;53.596;22.520;2022-11-02T08:31:22;27.07;;;13.17;;
20399;SDS011;10359;53.596;22.520;2022-11-02T08:34:11;35.90;;;15.10;;
20399;SDS011;10359;53.596;22.520;2022-11-02T08:37:00;33.80;;;15.93;;
20399;SDS011;10359;53.596;22.520;2022-11-02T08:39:49;28.47;;;14.17;;
20399;SDS011;10359;53.596;22.520;2022-11-02T08:42:40;33.23;;;14.70;;
20399;SDS011;10359;53.596;22.520;2022-11-02T08:45:30;31.27;;;14.37;;
20399;SDS011;10359;53.596;22.520;2022-11-02T08:48:40;27.83;;;14.43;;
20399;SDS011;10359;53.596;22.520;2022-11-02T08:51:30;29.03;;;15.57;;
20399;SDS011;10359;53.596;22.520;2022-11-02T08:54:19;26.20;;;15.37;;
20399;SDS011;10359;53.596;22.520;2022-11-02T08:57:08;23.23;;;14.13;;
20399;SDS011;10359;53.596;22.520;2022-11-02T08:59:59;25.03;;;13.73;;
20399;SDS011;10359;53.596;22.520;2022-11-02T09:02:58;21.67;;;13.37;;
20399;SDS011;10359;53.596;22.520;2022-11-02T09:05:49;25.87;;;14.30;;
20399;SDS011;10359;53.596;22.520;2022-11-02T09:08:43;28.87;;;14.70;;
20399;SDS011;10359;53.596;22.520;2022-11-02T09:11:33;47.77;;;16.37;;
20399;SDS011;10359;53.596;22.520;2022-11-02T09:14:24;46.00;;;17.13;;
20399;SDS011;10359;53.596;22.520;2022-11-02T09:17:15;30.93;;;14.60;;
20399;SDS011;10359;53.596;22.520;2022-11-02T09:20:05;24.10;;;13.47;;
20399;SDS011;10359;53.596;22.520;2022-11-02T09:22:55;22.73;;;13.70;;
20399;SDS011;10359;53.596;22.520;2022-11-02T09:25:44;28.90;;;15.43;;
20399;SDS011;10359;53.596;22.520;2022-11-02T09:28:34;26.63;;;15.00;;
20399;SDS011;10359;53.596;22.520;2022-11-02T09:31:23;25.97;;;13.80;;
20399;SDS011;10359;53.596;22.520;2022-11-02T09:34:16;25.57;;;14.37;;
20399;SDS011;10359;53.596;22.520;2022-11-02T09:37:05;27.07;;;14.43;;
20399;SDS011;10359;53.596;22.520;2022-11-02T09:39:54;24.70;;;13.43;;
20399;SDS011;10359;53.596;22.520;2022-11-02T09:42:46;25.37;;;13.83;;
20399;SDS011;10359;53.596;22.520;2022-11-02T09:45:47;24.70;;;14.37;;
20399;SDS011;10359;53.596;22.520;2022-11-02T09:48:42;25.77;;;13.17;;
20399;SDS011;10359;53.596;22.520;2022-11-02T09:51:36;23.93;;;13.90;;
20399;SDS011;10359;53.596;22.520;2022-11-02T09:54:29;24.27;;;13.33;;
20399;SDS011;10359;53.596;22.520;2022-11-02T09:57:25;20.47;;;12.93;;
20399;SDS011;10359;53.596;22.520;2022-11-02T10:00:16;21.57;;;12.90;;
20399;SDS011;10359;53.596;22.520;2022-11-02T10:03:07;19.93;;;12.63;;
20399;SDS011;10359;53.596;22.520;2022-11-02T10:06:06;21.97;;;12.57;;
20399;SDS011;10359;53.596;22.520;2022-11-02T10:09:04;21.20;;;11.10;;
20399;SDS011;10359;53.596;22.520;2022-11-02T10:12:02;22.87;;;13.47;;
20399;SDS011;10359;53.596;22.520;2022-11-02T10:15:01;19.30;;;12.00;;
20399;SDS011;10359;53.596;22.520;2022-11-02T10:17:54;19.47;;;11.80;;
20399;SDS011;10359;53.596;22.520;2022-11-02T10:20:46;20.20;;;11.80;;
20399;SDS011;10359;53.596;22.520;2022-11-02T10:23:40;24.33;;;12.67;;
20399;SDS011;10359;53.596;22.520;2022-11-02T10:26:36;18.33;;;11.10;;
20399;SDS011;10359;53.596;22.520;2022-11-02T10:29:33;20.73;;;11.93;;
20399;SDS011;10359;53.596;22.520;2022-11-02T10:32:30;17.13;;;10.90;;
20399;SDS011;10359;53.596;22.520;2022-11-02T10:35:24;23.80;;;11.93;;
20399;SDS011;10359;53.596;22.520;2022-11-02T10:38:38;23.47;;;11.07;;
20399;SDS011;10359;53.596;22.520;2022-11-02T10:41:42;17.97;;;10.60;;
20399;SDS011;10359;53.596;22.520;2022-11-02T10:45:02;18.97;;;10.70;;
20399;SDS011;10359;53.596;22.520;2022-11-02T10:48:06;16.30;;;10.20;;
20399;SDS011;10359;53.596;22.520;2022-11-02T10:51:04;19.77;;;10.33;;
20399;SDS011;10359;53.596;22.520;2022-11-02T10:53:56;16.93;;;10.30;;
20399;SDS011;10359;53.596;22.520;2022-11-02T10:56:47;13.07;;;9.83;;
20399;SDS011;10359;53.596;22.520;2022-11-02T10:59:37;15.70;;;9.10;;
20399;SDS011;10359;53.596;22.520;2022-11-02T11:02:26;18.90;;;10.03;;
20399;SDS011;10359;53.596;22.520;2022-11-02T11:05:17;17.77;;;9.50;;
20399;SDS011;10359;53.596;22.520;2022-11-02T11:08:19;14.67;;;9.83;;
20399;SDS011;10359;53.596;22.520;2022-11-02T11:11:17;18.40;;;9.60;;
20399;SDS011;10359;53.596;22.520;2022-11-02T11:14:14;16.43;;;9.93;;
20399;SDS011;10359;53.596;22.520;2022-11-02T11:17:26;16.90;;;9.47;;
20399;SDS011;10359;53.596;22.520;2022-11-02T11:20:42;17.57;;;9.33;;
20399;SDS011;10359;53.596;22.520;2022-11-02T11:23:32;16.37;;;9.50;;
20399;SDS011;10359;53.596;22.520;2022-11-02T11:26:25;17.73;;;11.80;;
20399;SDS011;10359;53.596;22.520;2022-11-02T11:29:21;16.50;;;9.60;;
20399;SDS011;10359;53.596;22.520;2022-11-02T11:32:12;11.23;;;8.57;;
20399;SDS011;10359;53.596;22.520;2022-11-02T11:35:04;12.87;;;8.50;;
20399;SDS011;10359;53.596;22.520;2022-11-02T11:38:04;13.80;;;8.20;;
20399;SDS011;10359;53.596;22.520;2022-11-02T11:40:57;13.50;;;7.87;;
20399;SDS011;10359;53.596;22.520;2022-11-02T11:43:47;15.40;;;8.63;;
20399;SDS011;10359;53.596;22.520;2022-11-02T11:46:40;13.40;;;8.83;;
20399;SDS011;10359;53.596;22.520;2022-11-02T11:49:33;13.23;;;8.10;;
20399;SDS011;10359;53.596;22.520;2022-11-02T11:53:09;14.33;;;7.90;;
20399;SDS011;10359;53.596;22.520;2022-11-02T11:56:09;11.77;;;7.10;;
20399;SDS011;10359;53.596;22.520;2022-11-02T11:59:23;18.10;;;10.07;;
20399;SDS011;10359;53.596;22.520;2022-11-02T12:02:25;11.90;;;7.20;;
20399;SDS011;10359;53.596;22.520;2022-11-02T12:05:16;10.10;;;6.83;;
20399;SDS011;10359;53.596;22.520;2022-11-02T12:08:13;12.93;;;8.13;;
20399;SDS011;10359;53.596;22.520;2022-11-02T12:11:24;12.27;;;7.43;;
20399;SDS011;10359;53.596;22.520;2022-11-02T12:14:30;12.50;;;7.70;;
20399;SDS011;10359;53.596;22.520;2022-11-02T12:17:30;12.50;;;6.50;;
20399;SDS011;10359;53.596;22.520;2022-11-02T12:20:35;12.27;;;7.10;;
20399;SDS011;10359;53.596;22.520;2022-11-02T12:23:41;13.87;;;7.73;;
20399;SDS011;10359;53.596;22.520;2022-11-02T12:26:57;11.47;;;7.30;;
20399;SDS011;10359;53.596;22.520;2022-11-02T12:30:01;13.33;;;7.40;;
20399;SDS011;10359;53.596;22.520;2022-11-02T12:36:29;13.03;;;7.57;;
20399;SDS011;10359;53.596;22.520;2022-11-02T12:39:53;12.83;;;7.07;;
20399;SDS011;10359;53.596;22.520;2022-11-02T12:42:53;12.93;;;6.87;;
20399;SDS011;10359;53.596;22.520;2022-11-02T12:45:48;11.43;;;6.40;;
20399;SDS011;10359;53.596;22.520;2022-11-02T12:48:52;13.10;;;6.40;;
20399;SDS011;10359;53.596;22.520;2022-11-02T12:51:52;11.80;;;6.37;;
20399;SDS011;10359;53.596;22.520;2022-11-02T12:54:49;10.33;;;5.83;;
20399;SDS011;10359;53.596;22.520;2022-11-02T12:57:42;10.10;;;6.23;;
20399;SDS011;10359;53.596;22.520;2022-11-02T13:00:32;11.23;;;6.30;;
20399;SDS011;10359;53.596;22.520;2022-11-02T13:03:30;13.80;;;6.47;;
20399;SDS011;10359;53.596;22.520;2022-11-02T13:06:28;10.13;;;6.20;;
20399;SDS011;10359;53.596;22.520;2022-11-02T13:09:22;11.83;;;6.60;;
20399;SDS011;10359;53.596;22.520;2022-11-02T13:12:16;13.00;;;6.70;;
20399;SDS011;10359;53.596;22.520;2022-11-02T13:15:10;12.00;;;6.67;;
20399;SDS011;10359;53.596;22.520;2022-11-02T13:18:04;8.77;;;6.30;;
20399;SDS011;10359;53.596;22.520;2022-11-02T13:21:01;12.53;;;6.43;;
20399;SDS011;10359;53.596;22.520;2022-11-02T13:23:53;11.77;;;6.10;;
20399;SDS011;10359;53.596;22.520;2022-11-02T13:26:45;12.83;;;5.93;;
20399;SDS011;10359;53.596;22.520;2022-11-02T13:29:44;10.13;;;5.93;;
20399;SDS011;10359;53.596;22.520;2022-11-02T13:32:37;10.20;;;6.20;;
20399;SDS011;10359;53.596;22.520;2022-11-02T13:35:31;13.50;;;6.40;;
20399;SDS011;10359;53.596;22.520;2022-11-02T13:38:24;10.73;;;6.07;;
20399;SDS011;10359;53.596;22.520;2022-11-02T13:41:25;13.30;;;6.47;;
20399;SDS011;10359;53.596;22.520;2022-11-02T13:44:31;8.80;;;5.20;;
20399;SDS011;10359;53.596;22.520;2022-11-02T13:47:40;12.33;;;6.00;;
20399;SDS011;10359;53.596;22.520;2022-11-02T13:50:47;13.37;;;5.97;;
20399;SDS011;10359;53.596;22.520;2022-11-02T13:53:39;13.93;;;5.97;;
20399;SDS011;10359;53.596;22.520;2022-11-02T13:56:38;12.73;;;6.30;;
20399;SDS011;10359;53.596;22.520;2022-11-02T13:59:28;9.97;;;5.63;;
20399;SDS011;10359;53.596;22.520;2022-11-02T14:02:27;16.20;;;6.93;;
20399;SDS011;10359;53.596;22.520;2022-11-02T14:05:21;11.60;;;6.47;;
20399;SDS011;10359;53.596;22.520;2022-11-02T14:08:17;9.97;;;6.30;;
20399;SDS011;10359;53.596;22.520;2022-11-02T14:14:35;15.73;;;6.93;;
20399;SDS011;10359;53.596;22.520;2022-11-02T14:17:24;14.87;;;7.10;;
20399;SDS011;10359;53.596;22.520;2022-11-02T14:23:34;15.57;;;6.60;;
20399;SDS011;10359;53.596;22.520;2022-11-02T14:26:31;13.43;;;7.47;;
20399;SDS011;10359;53.596;22.520;2022-11-02T14:29:49;12.33;;;7.13;;
20399;SDS011;10359;53.596;22.520;2022-11-02T14:32:41;12.17;;;6.10;;
20399;SDS011;10359;53.596;22.520;2022-11-02T14:35:40;16.47;;;7.37;;
20399;SDS011;10359;53.596;22.520;2022-11-02T14:38:48;16.43;;;7.17;;
20399;SDS011;10359;53.596;22.520;2022-11-02T14:41:57;16.10;;;7.07;;
20399;SDS011;10359;53.596;22.520;2022-11-02T14:45:10;16.73;;;7.20;;
20399;SDS011;10359;53.596;22.520;2022-11-02T14:48:12;19.93;;;7.77;;
20399;SDS011;10359;53.596;22.520;2022-11-02T14:51:04;17.87;;;7.93;;
20399;SDS011;10359;53.596;22.520;2022-11-02T14:54:05;20.87;;;8.00;;
20399;SDS011;10359;53.596;22.520;2022-11-02T14:57:04;13.13;;;6.97;;
20399;SDS011;10359;53.596;22.520;2022-11-02T15:00:03;15.17;;;7.70;;
20399;SDS011;10359;53.596;22.520;2022-11-02T15:03:06;11.97;;;6.83;;
20399;SDS011;10359;53.596;22.520;2022-11-02T15:06:14;22.80;;;8.70;;
20399;SDS011;10359;53.596;22.520;2022-11-02T15:09:09;20.07;;;8.63;;
20399;SDS011;10359;53.596;22.520;2022-11-02T15:11:58;17.73;;;8.57;;
20399;SDS011;10359;53.596;22.520;2022-11-02T15:14:55;25.27;;;9.50;;
20399;SDS011;10359;53.596;22.520;2022-11-02T15:17:53;25.67;;;10.00;;
20399;SDS011;10359;53.596;22.520;2022-11-02T15:24:16;13.00;;;7.17;;
20399;SDS011;10359;53.596;22.520;2022-11-02T15:27:10;18.40;;;8.00;;
20399;SDS011;10359;53.596;22.520;2022-11-02T15:30:00;15.00;;;7.50;;
20399;SDS011;10359;53.596;22.520;2022-11-02T15:32:53;14.60;;;7.47;;
20399;SDS011;10359;53.596;22.520;2022-11-02T15:35:48;16.17;;;7.47;;
20399;SDS011;10359;53.596;22.520;2022-11-02T15:38:41;17.60;;;8.13;;
20399;SDS011;10359;53.596;22.520;2022-11-02T15:41:38;20.40;;;8.33;;
20399;SDS011;10359;53.596;22.520;2022-11-02T15:44:51;13.50;;;6.83;;
20399;SDS011;10359;53.596;22.520;2022-11-02T15:48:14;17.63;;;8.33;;
20399;SDS011;10359;53.596;22.520;2022-11-02T15:51:21;18.50;;;8.13;;
20399;SDS011;10359;53.596;22.520;2022-11-02T15:54:20;13.63;;;6.87;;
20399;SDS011;10359;53.596;22.520;2022-11-02T15:57:23;15.57;;;6.57;;
20399;SDS011;10359;53.596;22.520;2022-11-02T16:00:23;17.07;;;7.17;;
20399;SDS011;10359;53.596;22.520;2022-11-02T16:03:17;11.97;;;5.83;;
20399;SDS011;10359;53.596;22.520;2022-11-02T16:06:07;17.23;;;6.93;;
20399;SDS011;10359;53.596;22.520;2022-11-02T16:08:59;17.10;;;6.97;;
20399;SDS011;10359;53.596;22.520;2022-11-02T16:11:59;19.07;;;7.10;;
20399;SDS011;10359;53.596;22.520;2022-11-02T16:14:52;18.57;;;7.43;;
20399;SDS011;10359;53.596;22.520;2022-11-02T16:17:46;17.33;;;7.33;;
20399;SDS011;10359;53.596;22.520;2022-11-02T16:20:36;23.70;;;9.27;;
20399;SDS011;10359;53.596;22.520;2022-11-02T16:23:28;19.13;;;8.77;;
20399;SDS011;10359;53.596;22.520;2022-11-02T16:26:19;21.70;;;9.53;;
20399;SDS011;10359;53.596;22.520;2022-11-02T16:29:10;22.53;;;9.27;;
20399;SDS011;10359;53.596;22.520;2022-11-02T16:32:10;20.17;;;10.10;;
20399;SDS011;10359;53.596;22.520;2022-11-02T16:35:05;20.93;;;10.80;;
20399;SDS011;10359;53.596;22.520;2022-11-02T16:37:58;17.77;;;10.63;;
20399;SDS011;10359;53.596;22.520;2022-11-02T16:40:48;20.00;;;10.63;;
20399;SDS011;10359;53.596;22.520;2022-11-02T16:43:38;24.33;;;11.07;;
20399;SDS011;10359;53.596;22.520;2022-11-02T16:46:46;22.53;;;11.47;;
20399;SDS011;10359;53.596;22.520;2022-11-02T16:49:55;24.47;;;11.37;;
20399;SDS011;10359;53.596;22.520;2022-11-02T16:52:52;21.93;;;11.70;;
20399;SDS011;10359;53.596;22.520;2022-11-02T16:55:43;20.00;;;11.93;;
20399;SDS011;10359;53.596;22.520;2022-11-02T16:58:34;24.87;;;11.80;;
20399;SDS011;10359;53.596;22.520;2022-11-02T17:01:24;20.27;;;13.20;;
20399;SDS011;10359;53.596;22.520;2022-11-02T17:04:17;24.00;;;13.43;;
20399;SDS011;10359;53.596;22.520;2022-11-02T17:07:12;22.63;;;12.87;;
20399;SDS011;10359;53.596;22.520;2022-11-02T17:10:05;22.73;;;12.73;;